Decoded Metar for EIME (CASEMENT in IRELAND) (IATA:N/A) | Meteo·Mobile Aviation Weather
aviador You're here:

EIME Decoded Metar

CASEMENT in IRELAND
Report Time2019-09-23 08:30:00
UTC Time2019-09-23 08:57:07
Flight Rules vfr VFR
Wind170° at 09 kt
W.Decomp.*RWY 23: 5.2 kt HW 7.4 kt LCW
RWY 11: 3.8 kt HW 8.2 kt RCW
Visibility9999 m
Phenomena:N/A
Clouds:Few 017 Hf
Broken 200 Hf
Expected CloudBase > 1,200 ft AGL from Temp-Dew spread
Ceiling20,000 ft
Temp13°C (ISA -1)
Dew Point10°C (82% RH)
AAT9.8°C
QNH1004 hPa
Density Alt610 ft
Elevation305 ft
Report Wrong Elevation
Raw Report
METAR EIME 230830Z 17009KT 9999 FEW017 BKN200 13/10 Q1004=

Extra information for EIME:More info

Metar Taf Metar & Taf Last 4 Metars F.Rules Stats Wind Profile Meteogram Temp Stats Airport Information Weather charts Add Link Nearby VenuesMetar ALERT Operation Metar Decoded Social comments